Weather at Hot Springs Airport

Public forecast

Using degrees Fahrenheit for public forecast. Weather courtesy of forecast.io.

Closest aviation weather report (METAR) to Hot Springs Airport

Closest report is Glacier Park International Airport, 44.3 nm (82.1 km) NNE. Retrieved 2022/01/29 05:55 UTC (21 minutes ago):

KGPI 290555Z 00000KT 7SM OVC006 M07/M08 A3034 RMK AO2 SLP317 I6000 T10671083 11039 21094 58002

Closest aviation forecast (TAF) to Hot Springs Airport

Closest forecast is Glacier Park International Airport, 44.3 nm (82.1 km) NNE. Retrieved 2022/01/29 06:22 UTC (0 seconds ago):

TAF KGPI 290520Z 2906/3006 00000KT 6SM BR OVC009 FM290900 00000KT 3SM BR OVC007